Time;durP1;ratioP1;P1;durP2;ratioP2;P2;SDS_P1;SDS_P2;PMS_P1;PMS_P2;Temp;Humidity;BMP_temperature;BMP_pressure;BME280_temperature;BME280_humidity;BME280_pressure;Samples;Min_cycle;Max_cycle;Signal;HPM_P1;HPM_P2
2023/11/20 00:00:38;;;;;;;2.38;0.77;;;;;;;-146.25;100.00;52611.50;2080541;28;34865;-75
2023/11/20 00:01:41;;;;;;;2.00;0.60;;;;;;;-146.25;100.00;52577.03;2079624;28;34480;-75
2023/11/20 00:02:43;;;;;;;2.92;0.80;;;;;;;-146.25;100.00;52573.00;2080248;28;28850;-76
2023/11/20 00:03:46;;;;;;;3.83;0.80;;;;;;;-146.25;100.00;52621.66;2080257;28;35572;-74
2023/11/20 00:04:48;;;;;;;2.22;0.70;;;;;;;-146.25;100.00;52587.19;2079760;28;33636;-76
2023/11/20 00:05:50;;;;;;;1.98;0.95;;;;;;;-146.25;100.00;52611.50;2079765;28;34435;-74
2023/11/20 00:06:52;;;;;;;1.98;0.70;;;;;;;-146.25;100.00;52617.59;2079583;28;37146;-75
2023/11/20 00:07:53;;;;;;;2.88;0.90;;;;;;;-146.25;100.00;52607.47;2079967;28;36352;-75
2023/11/20 00:08:57;;;;;;;2.53;1.02;;;;;;;-146.25;100.00;52609.50;2081148;28;35627;-75
2023/11/20 00:09:59;;;;;;;2.10;0.80;;;;;;;-146.25;100.00;52587.19;2079720;28;37109;-74
2023/11/20 00:11:01;;;;;;;3.22;1.00;;;;;;;-146.25;100.00;52573.00;2080573;28;35750;-75
2023/11/20 00:12:03;;;;;;;3.97;0.90;;;;;;;-146.25;100.00;52601.38;2079980;28;35106;-75
2023/11/20 00:13:08;;;;;;;4.68;1.30;;;;;;;-146.25;100.00;52591.25;2079791;28;36351;-74
2023/11/20 00:14:09;;;;;;;3.03;1.23;;;;;;;-146.25;100.00;52607.47;2080443;28;20428;-74
2023/11/20 00:15:14;;;;;;;2.63;1.20;;;;;;;-146.25;100.00;52619.63;2080492;28;37244;-75
2023/11/20 00:16:16;;;;;;;3.95;1.30;;;;;;;-146.25;100.00;52623.69;2080312;28;38176;-75
2023/11/20 00:17:17;;;;;;;3.40;1.38;;;;;;;-146.25;100.00;52603.41;2080565;28;34052;-75
2023/11/20 00:18:19;;;;;;;3.58;1.60;;;;;;;-146.25;100.00;52607.47;2079617;28;37722;-74
2023/11/20 00:19:22;;;;;;;3.08;1.77;;;;;;;-146.25;100.00;52579.06;2081177;28;20045;-75
2023/11/20 00:20:23;;;;;;;6.00;2.13;;;;;;;-146.25;100.00;52597.31;2080099;28;35245;-75
2023/11/20 00:21:25;;;;;;;6.30;1.92;;;;;;;-146.25;100.00;52603.41;2080482;28;37484;-74
2023/11/20 00:22:27;;;;;;;4.28;1.88;;;;;;;-146.25;100.00;52648.00;2079875;28;33721;-74
2023/11/20 00:23:29;;;;;;;4.28;1.98;;;;;;;-146.25;100.00;52585.16;2087818;28;38621;-75
2023/11/20 00:24:30;;;;;;;5.07;2.13;;;;;;;-146.25;100.00;52603.41;2087558;28;36263;-74
2023/11/20 00:25:32;;;;;;;4.90;2.50;;;;;;;-146.25;100.00;52595.28;2087872;28;35098;-75
2023/11/20 00:26:35;;;;;;;5.78;2.53;;;;;;;-146.25;100.00;52631.78;2087356;28;38858;-74
2023/11/20 00:27:38;;;;;;;6.45;2.83;;;;;;;-146.25;100.00;52625.72;2080328;28;20045;-75
2023/11/20 00:28:41;;;;;;;7.03;3.20;;;;;;;-146.25;100.00;52581.09;2079956;28;25438;-76
2023/11/20 00:29:43;;;;;;;6.65;2.72;;;;;;;-146.25;100.00;52615.56;2079427;28;37775;-76
2023/11/20 00:30:45;;;;;;;7.60;3.10;;;;;;;-146.25;100.00;52621.66;2080396;28;24471;-75
2023/11/20 00:31:49;;;;;;;6.50;2.92;;;;;;;-146.25;100.00;52613.53;2080102;28;20073;-76
2023/11/20 00:32:51;;;;;;;8.25;3.60;;;;;;;-146.25;100.00;52583.13;2080342;28;20064;-75
2023/11/20 00:33:55;;;;;;;7.97;3.60;;;;;;;-146.25;100.00;52607.47;2088251;28;31641;-75
2023/11/20 00:34:57;;;;;;;8.30;3.95;;;;;;;-146.25;100.00;52593.25;2079326;28;31336;-76
2023/11/20 00:35:58;;;;;;;9.73;4.35;;;;;;;-146.25;100.00;52617.59;2080106;28;28739;-75
2023/11/20 00:37:00;;;;;;;9.63;4.15;;;;;;;-146.25;100.00;52601.38;2080012;28;29785;-74
2023/11/20 00:38:03;;;;;;;10.40;4.80;;;;;;;-146.25;100.00;52595.28;2080623;28;29363;-76
2023/11/20 00:39:05;;;;;;;13.65;4.40;;;;;;;-146.25;100.00;52591.25;2080590;28;20730;-74
2023/11/20 00:40:11;;;;;;;10.70;4.75;;;;;;;-146.25;100.00;52617.59;2080520;28;26998;-75
2023/11/20 00:41:13;;;;;;;8.98;4.50;;;;;;;-146.25;100.00;52613.53;2080003;28;20854;-75
2023/11/20 00:42:15;;;;;;;9.40;4.38;;;;;;;-146.25;100.00;52583.13;2071606;28;31497;-75
2023/11/20 00:43:17;;;;;;;10.45;4.63;;;;;;;-146.25;100.00;52611.50;2071528;28;30873;-75
2023/11/20 00:44:19;;;;;;;12.40;4.85;;;;;;;-146.25;100.00;52587.19;2079440;28;24499;-75
2023/11/20 00:45:20;;;;;;;13.02;5.38;;;;;;;-146.25;100.00;52595.28;2087809;28;32242;-75
2023/11/20 00:46:22;;;;;;;10.93;5.40;;;;;;;-146.25;100.00;52607.47;2080966;28;20854;-75
2023/11/20 00:47:24;;;;;;;12.63;5.35;;;;;;;-146.25;100.00;52583.13;2080578;28;20828;-75
2023/11/20 00:48:27;;;;;;;11.55;5.03;;;;;;;-146.25;100.00;52599.34;2080567;28;22263;-74
2023/11/20 00:49:29;;;;;;;12.18;5.32;;;;;;;-146.25;100.00;52587.19;2080483;28;20120;-74
2023/11/20 00:50:31;;;;;;;13.05;6.05;;;;;;;-146.25;100.00;52601.38;2080308;28;29498;-75
2023/11/20 00:51:34;;;;;;;11.88;5.88;;;;;;;-146.25;100.00;52611.50;2080465;28;27259;-75
2023/11/20 00:52:36;;;;;;;12.30;6.03;;;;;;;-146.25;100.00;52595.28;2079928;28;20045;-75
2023/11/20 00:53:38;;;;;;;12.45;5.78;;;;;;;-146.25;100.00;52611.50;2079425;28;34267;-76
2023/11/20 00:54:40;;;;;;;12.45;5.93;;;;;;;-146.25;100.00;52601.38;2080570;28;25189;-75
2023/11/20 00:55:42;;;;;;;14.38;6.32;;;;;;;-146.25;100.00;52595.28;2080751;28;20073;-76
2023/11/20 00:56:44;;;;;;;16.88;5.70;;;;;;;-146.25;100.00;52603.41;2079320;28;32757;-76
2023/11/20 00:57:45;;;;;;;14.50;6.22;;;;;;;-146.25;100.00;52601.38;2079602;28;26078;-75
2023/11/20 00:58:47;;;;;;;12.00;5.82;;;;;;;-146.25;100.00;52605.44;2080587;28;20081;-76
2023/11/20 00:59:52;;;;;;;14.35;5.40;;;;;;;-146.25;100.00;52593.25;2079129;28;29603;-76
2023/11/20 01:00:56;;;;;;;22.20;6.50;;;;;;;-146.25;100.00;52611.50;2079413;28;20061;-76
2023/11/20 01:01:58;;;;;;;18.55;6.38;;;;;;;-146.25;100.00;52595.28;2071538;28;20888;-77
2023/11/20 01:03:00;;;;;;;16.98;5.65;;;;;;;-146.25;100.00;52575.00;2072317;28;20034;-77
2023/11/20 01:04:03;;;;;;;11.60;5.65;;;;;;;-146.25;100.00;52617.59;2079520;28;29388;-77
2023/11/20 01:05:05;;;;;;;12.45;4.72;;;;;;;-146.25;100.00;52583.13;2080209;28;20678;-76
2023/11/20 01:06:08;;;;;;;15.23;5.47;;;;;;;-146.25;100.00;52607.47;2080330;28;28885;-77
2023/11/20 01:07:13;;;;;;;14.10;5.18;;;;;;;-146.25;100.00;52648.00;2079025;28;31982;-76
2023/11/20 01:08:15;;;;;;;13.48;5.05;;;;;;;-146.25;100.00;52587.19;2080186;28;20100;-76
2023/11/20 01:09:17;;;;;;;12.85;4.20;;;;;;;-146.25;100.00;52601.38;2080544;28;20076;-77
2023/11/20 01:10:19;;;;;;;10.77;4.28;;;;;;;-146.25;100.00;52619.63;2079309;28;32295;-77
2023/11/20 01:11:21;;;;;;;12.90;4.35;;;;;;;-146.25;100.00;52585.16;2079735;28;23822;-77
2023/11/20 01:12:22;;;;;;;10.85;3.70;;;;;;;-146.25;100.00;52589.22;2079542;28;29914;-76
2023/11/20 01:13:25;;;;;;;13.75;3.85;;;;;;;-146.25;100.00;52617.59;2079509;28;32464;-76
2023/11/20 01:14:27;;;;;;;11.40;3.67;;;;;;;-146.25;100.00;52595.28;2079766;28;20042;-76
2023/11/20 01:15:29;;;;;;;13.90;4.03;;;;;;;-146.25;100.00;52617.59;2080056;28;20042;-77
2023/11/20 01:16:31;;;;;;;8.82;3.00;;;;;;;-146.25;100.00;52601.38;2080525;28;21107;-77
2023/11/20 01:17:33;;;;;;;10.10;2.85;;;;;;;-146.25;100.00;52603.41;2080200;28;20076;-76
2023/11/20 01:18:35;;;;;;;9.85;3.50;;;;;;;-146.25;100.00;52631.78;2080275;28;21536;-76
2023/11/20 01:19:37;;;;;;;8.80;2.70;;;;;;;-146.25;100.00;52601.38;2080351;28;24933;-76
2023/11/20 01:20:38;;;;;;;12.60;2.60;;;;;;;-146.25;100.00;52595.28;2080145;28;28030;-76
2023/11/20 01:21:42;;;;;;;10.82;2.67;;;;;;;-146.25;100.00;52650.03;2079525;28;27345;-75
2023/11/20 01:22:44;;;;;;;10.25;2.53;;;;;;;-146.25;100.00;52615.56;2079249;28;24762;-76
2023/11/20 01:23:45;;;;;;;9.55;1.90;;;;;;;-146.25;100.00;52587.19;2079363;28;20942;-73
2023/11/20 01:24:47;;;;;;;5.97;1.88;;;;;;;-146.25;100.00;52575.00;2078825;28;32144;-75
2023/11/20 01:25:51;;;;;;;7.97;1.70;;;;;;;-146.25;100.00;52627.75;2078969;28;31920;-76
2023/11/20 01:26:56;;;;;;;9.63;1.70;;;;;;;-146.25;100.00;52625.72;2079966;28;20136;-77
2023/11/20 01:27:59;;;;;;;6.82;1.38;;;;;;;-146.25;100.00;52629.75;2079139;28;36901;-76
2023/11/20 01:29:03;;;;;;;7.05;1.13;;;;;;;-146.25;100.00;52648.00;2071806;28;23239;-75
2023/11/20 01:30:09;;;;;;;5.00;1.25;;;;;;;-146.25;100.00;52558.78;2079627;28;20830;-76
2023/11/20 01:31:11;;;;;;;7.18;1.35;;;;;;;-146.25;100.00;52619.63;2080577;28;21279;-76
2023/11/20 01:32:13;;;;;;;7.10;1.30;;;;;;;-146.25;100.00;52611.50;2079048;28;35565;-76
2023/11/20 01:33:18;;;;;;;6.55;1.50;;;;;;;-146.25;100.00;52635.84;2079618;28;20096;-76
2023/11/20 01:34:19;;;;;;;8.07;1.42;;;;;;;-146.25;100.00;52595.28;2078911;28;30039;-76
2023/11/20 01:35:21;;;;;;;4.22;1.38;;;;;;;-146.25;100.00;52589.22;2079447;28;28466;-75
2023/11/20 01:36:23;;;;;;;5.65;0.77;;;;;;;-146.25;100.00;52575.00;2088053;28;22986;-76
2023/11/20 01:37:25;;;;;;;3.55;1.05;;;;;;;-146.25;100.00;52633.81;2087372;28;27964;-74
2023/11/20 01:38:27;;;;;;;6.07;1.10;;;;;;;-146.25;100.00;52597.31;2080276;28;21042;-75
2023/11/20 01:39:32;;;;;;;7.75;1.02;;;;;;;-146.25;100.00;52599.34;2080204;28;20045;-74
2023/11/20 01:40:34;;;;;;;4.32;0.82;;;;;;;-146.25;100.00;52581.09;2079326;28;20030;-76
2023/11/20 01:41:37;;;;;;;4.35;0.90;;;;;;;-146.25;100.00;52617.59;2079502;28;21026;-76
2023/11/20 01:42:38;;;;;;;5.28;0.93;;;;;;;-146.25;100.00;52554.75;2079522;28;21252;-75
2023/11/20 01:43:42;;;;;;;3.47;0.50;;;;;;;-146.25;100.00;52607.47;2079203;28;31675;-75
2023/11/20 01:44:45;;;;;;;5.20;0.88;;;;;;;-146.25;100.00;52591.25;2079355;28;26936;-75
2023/11/20 01:45:47;;;;;;;4.72;0.80;;;;;;;-146.25;100.00;52599.34;2079288;28;28948;-75
2023/11/20 01:46:50;;;;;;;6.30;0.90;;;;;;;-146.25;100.00;52581.09;2079022;28;35635;-77
2023/11/20 01:47:52;;;;;;;5.18;0.80;;;;;;;-146.25;100.00;52613.53;2079656;28;21573;-75
2023/11/20 01:48:53;;;;;;;6.68;0.93;;;;;;;-146.25;100.00;52611.50;2079072;28;28075;-76
2023/11/20 01:49:55;;;;;;;4.55;1.00;;;;;;;-146.25;100.00;52605.44;2079261;28;29842;-76
2023/11/20 01:50:58;;;;;;;4.03;0.80;;;;;;;-146.25;100.00;52579.06;2080071;28;20815;-76
2023/11/20 01:52:02;;;;;;;4.03;1.05;;;;;;;-146.25;100.00;52591.25;2078986;28;31808;-76
2023/11/20 01:53:05;;;;;;;6.47;0.60;;;;;;;-146.25;100.00;52611.50;2079134;28;27176;-76
2023/11/20 01:54:09;;;;;;;6.70;1.20;;;;;;;-146.25;100.00;52595.28;2079511;28;20046;-77
2023/11/20 01:55:13;;;;;;;4.05;0.85;;;;;;;-146.25;100.00;52595.28;2080275;28;20071;-76
2023/11/20 01:56:15;;;;;;;3.75;0.65;;;;;;;-146.25;100.00;52583.13;2079185;28;20719;-77
2023/11/20 01:57:17;;;;;;;4.40;0.80;;;;;;;-146.25;100.00;52619.63;2079914;28;20038;-76
2023/11/20 01:58:19;;;;;;;5.15;0.68;;;;;;;-146.25;100.00;52611.50;2079257;28;20204;-77
2023/11/20 01:59:21;;;;;;;3.95;0.70;;;;;;;-146.25;100.00;52623.69;2071837;28;20157;-76
2023/11/20 02:00:24;;;;;;;2.22;0.60;;;;;;;-146.25;100.00;52595.28;2071257;28;20050;-76
2023/11/20 02:01:33;;;;;;;2.65;0.68;;;;;;;-146.25;100.00;52581.09;2064643;28;20086;-76
2023/11/20 02:02:42;;;;;;;5.82;0.88;;;;;;;-146.25;100.00;52599.34;2063192;28;20096;-75
2023/11/20 02:03:44;;;;;;;4.90;0.70;;;;;;;-146.25;100.00;52599.34;2065160;28;22977;-75
2023/11/20 02:04:52;;;;;;;4.93;0.98;;;;;;;-146.25;100.00;52603.41;2079730;28;30210;-74
2023/11/20 02:05:54;;;;;;;7.07;0.70;;;;;;;-146.25;100.00;52619.63;2079297;28;34295;-76
2023/11/20 02:06:56;;;;;;;3.70;0.52;;;;;;;-146.25;100.00;52643.97;2080471;28;20945;-75
2023/11/20 02:07:58;;;;;;;5.22;0.50;;;;;;;-146.25;100.00;52603.41;2078978;28;27260;-76
2023/11/20 02:09:03;;;;;;;4.88;0.63;;;;;;;-146.25;100.00;52599.34;2078590;28;30722;-75
2023/11/20 02:10:09;;;;;;;3.53;0.75;;;;;;;-146.25;100.00;52609.50;2079105;28;30185;-75
2023/11/20 02:11:13;;;;;;;4.72;0.70;;;;;;;-146.25;100.00;52611.50;2079655;28;20088;-73
2023/11/20 02:12:15;;;;;;;5.80;0.93;;;;;;;-146.25;100.00;52627.75;2080084;28;31608;-74
2023/11/20 02:13:22;;;;;;;4.40;0.73;;;;;;;-146.25;100.00;52627.75;2078852;28;26555;-72
2023/11/20 02:14:24;;;;;;;3.42;1.13;;;;;;;-146.25;100.00;52627.75;2072049;28;20034;-73
2023/11/20 02:15:26;;;;;;;7.63;1.67;;;;;;;-146.25;100.00;52625.72;2063618;28;20911;-74
2023/11/20 02:16:28;;;;;;;5.70;1.17;;;;;;;-146.25;100.00;52645.97;2071417;28;20089;-74
2023/11/20 02:17:32;;;;;;;7.60;1.80;;;;;;;-146.25;100.00;52599.34;2079066;28;20238;-72
2023/11/20 02:18:36;;;;;;;5.07;1.80;;;;;;;-146.25;100.00;52587.19;2071806;28;28304;-76
2023/11/20 02:19:43;;;;;;;8.70;1.80;;;;;;;-146.25;100.00;52613.53;2071078;28;20043;-74
2023/11/20 02:20:45;;;;;;;6.28;1.88;;;;;;;-146.25;100.00;52587.19;2071645;28;26412;-74
2023/11/20 02:21:50;;;;;;;4.72;1.35;;;;;;;-146.25;100.00;52639.91;2079406;28;20120;-76
2023/11/20 02:22:52;;;;;;;5.57;1.95;;;;;;;-146.25;100.00;52631.78;2079260;28;33049;-74
2023/11/20 02:23:53;;;;;;;4.50;1.73;;;;;;;-146.25;100.00;52615.56;2078759;28;22201;-73
2023/11/20 02:24:56;;;;;;;6.68;1.73;;;;;;;-146.25;100.00;52652.06;2079553;28;27474;-76
2023/11/20 02:26:42;;;;;;;7.10;1.90;;;;;;;-146.25;100.00;52615.56;2079504;28;27138;-75
2023/11/20 02:28:03;;;;;;;5.28;1.80;;;;;;;-146.25;100.00;52591.25;2079885;28;20077;-73
2023/11/20 02:29:32;;;;;;;;;;;;;;;-146.25;100.00;52639.91;2080298;28;31040;-75
2023/11/20 02:30:37;;;;;;;7.07;1.90;;;;;;;-146.25;100.00;52617.59;2080157;28;20046;-74
2023/11/20 02:31:42;;;;;;;5.97;1.60;;;;;;;-146.25;100.00;52631.78;2078618;28;33428;-76
2023/11/20 02:32:44;;;;;;;6.57;2.17;;;;;;;-146.25;100.00;52597.31;2071327;28;27247;-75
2023/11/20 02:33:45;;;;;;;6.65;2.08;;;;;;;-146.25;100.00;52595.28;2071141;28;31254;-75
2023/11/20 02:34:50;;;;;;;5.45;1.90;;;;;;;-146.25;100.00;52643.97;2079161;28;30497;-75
2023/11/20 02:35:52;;;;;;;5.53;2.30;;;;;;;-146.25;100.00;52613.53;2078954;28;29208;-76
2023/11/20 02:36:54;;;;;;;7.50;2.10;;;;;;;-146.25;100.00;52605.44;2080113;28;30357;-76
2023/11/20 02:37:56;;;;;;;6.65;2.40;;;;;;;-146.25;100.00;52595.28;2080908;28;28671;-75
2023/11/20 02:38:58;;;;;;;3.70;1.90;;;;;;;-146.25;100.00;52609.50;2080931;28;20046;-76
2023/11/20 02:39:59;;;;;;;8.48;2.22;;;;;;;-146.25;100.00;52619.63;2080677;28;31324;-76
2023/11/20 02:41:01;;;;;;;4.78;2.40;;;;;;;-146.25;100.00;52587.19;2081502;28;21564;-76
2023/11/20 02:42:06;;;;;;;9.23;2.45;;;;;;;-146.25;100.00;52591.25;2081150;28;27825;-76
2023/11/20 02:43:10;;;;;;;3.95;2.00;;;;;;;-146.25;100.00;52599.34;2080285;28;32260;-75
2023/11/20 02:44:12;;;;;;;8.40;2.25;;;;;;;-146.25;100.00;52615.56;2080867;28;20045;-75
2023/11/20 02:45:16;;;;;;;7.32;1.83;;;;;;;-146.25;100.00;52597.31;2080476;28;33786;-75
2023/11/20 02:46:18;;;;;;;5.95;2.00;;;;;;;-146.25;100.00;52645.97;2065273;28;20102;-75
2023/11/20 02:47:22;;;;;;;8.70;2.10;;;;;;;-146.25;100.00;52607.47;2073267;28;20046;-74
2023/11/20 02:48:26;;;;;;;5.80;2.10;;;;;;;-146.25;100.00;52607.47;2080312;28;28465;-76
2023/11/20 02:49:28;;;;;;;6.55;2.40;;;;;;;-146.25;100.00;52652.06;2080819;28;20889;-75
2023/11/20 02:50:34;;;;;;;7.47;2.38;;;;;;;-146.25;100.00;52599.34;2080307;28;27283;-78
2023/11/20 02:51:36;;;;;;;6.28;2.05;;;;;;;-146.25;100.00;52548.66;2080966;28;24614;-76
2023/11/20 02:52:38;;;;;;;3.92;1.83;;;;;;;-146.25;100.00;52603.41;2080932;28;20080;-76
2023/11/20 02:53:40;;;;;;;4.90;2.38;;;;;;;-146.25;100.00;52589.22;2080583;28;30992;-74
2023/11/20 02:54:44;;;;;;;7.32;2.25;;;;;;;-146.25;100.00;52599.34;2081024;28;27188;-74
2023/11/20 02:55:46;;;;;;;5.88;2.30;;;;;;;-146.25;100.00;52619.63;2081061;28;30962;-73
2023/11/20 02:56:48;;;;;;;5.70;2.30;;;;;;;-146.25;100.00;52603.41;2080169;28;28944;-73
2023/11/20 02:57:49;;;;;;;6.82;2.50;;;;;;;-146.25;100.00;52617.59;2080440;28;33613;-74
2023/11/20 02:58:52;;;;;;;5.68;2.28;;;;;;;-146.25;100.00;52625.72;2081397;28;20092;-75
2023/11/20 02:59:54;;;;;;;4.00;1.80;;;;;;;-146.25;100.00;52613.53;2081259;28;23383;-76
2023/11/20 03:00:55;;;;;;;3.33;1.52;;;;;;;-146.25;100.00;52589.22;2080174;28;27507;-74
2023/11/20 03:02:01;;;;;;;4.82;2.13;;;;;;;-146.25;100.00;52591.25;2072129;28;30222;-76
2023/11/20 03:03:04;;;;;;;5.97;2.28;;;;;;;-146.25;100.00;52609.50;2056933;28;27594;-73
2023/11/20 03:04:06;;;;;;;4.20;1.80;;;;;;;-146.25;100.00;52615.56;2073367;28;29188;-75
2023/11/20 03:05:08;;;;;;;7.80;2.50;;;;;;;-146.25;100.00;52609.50;2088699;28;20033;-75
2023/11/20 03:06:13;;;;;;;6.10;2.25;;;;;;;-146.25;100.00;52607.47;2079427;28;26093;-76
2023/11/20 03:07:14;;;;;;;6.40;2.30;;;;;;;-146.25;100.00;52621.66;2072513;28;20038;-75
2023/11/20 03:08:16;;;;;;;6.00;2.25;;;;;;;-146.25;100.00;52637.88;2080623;28;35350;-76
2023/11/20 03:09:18;;;;;;;5.07;1.95;;;;;;;-146.25;100.00;52581.09;2081078;28;23209;-76
2023/11/20 03:10:22;;;;;;;5.57;2.30;;;;;;;-146.25;100.00;52585.16;2080692;28;27131;-76
2023/11/20 03:11:24;;;;;;;5.03;2.10;;;;;;;-146.25;100.00;52587.19;2080060;28;27113;-74
2023/11/20 03:12:26;;;;;;;7.65;2.55;;;;;;;-146.25;100.00;52599.34;2080881;28;20135;-73
2023/11/20 03:13:28;;;;;;;4.97;2.28;;;;;;;-146.25;100.00;52599.34;2080705;28;29003;-74
2023/11/20 03:14:30;;;;;;;6.30;2.42;;;;;;;-146.25;100.00;52601.38;2081021;28;20115;-76
2023/11/20 03:15:32;;;;;;;5.88;2.33;;;;;;;-146.25;100.00;52587.19;2072408;28;20042;-74
2023/11/20 03:16:34;;;;;;;5.13;2.05;;;;;;;-146.25;100.00;52573.00;2072418;28;20049;-74
2023/11/20 03:17:35;;;;;;;7.90;2.58;;;;;;;-146.25;100.00;52609.50;2080067;28;27091;-75
2023/11/20 03:18:37;;;;;;;7.05;2.75;;;;;;;-146.25;100.00;52611.50;2081231;28;20038;-76
2023/11/20 03:19:43;;;;;;;5.43;2.70;;;;;;;-146.25;100.00;52558.78;2080872;28;20914;-76
2023/11/20 03:20:45;;;;;;;6.75;2.67;;;;;;;-146.25;100.00;52587.19;2080173;28;29861;-76
2023/11/20 03:21:48;;;;;;;8.77;2.72;;;;;;;-146.25;100.00;52613.53;2080615;28;20038;-75
2023/11/20 03:22:50;;;;;;;6.68;2.90;;;;;;;-146.25;100.00;52627.75;2079575;28;31285;-75
2023/11/20 03:23:55;;;;;;;7.10;2.95;;;;;;;-146.25;100.00;52593.25;2080422;28;21221;-76
2023/11/20 03:24:57;;;;;;;7.47;2.72;;;;;;;-146.25;100.00;52609.50;2081468;28;20046;-76
2023/11/20 03:26:01;;;;;;;7.93;3.28;;;;;;;-146.25;100.00;52595.28;2080159;28;32357;-76
2023/11/20 03:27:04;;;;;;;5.88;2.58;;;;;;;-146.25;100.00;52617.59;2080657;28;27189;-73
2023/11/20 03:28:05;;;;;;;6.65;2.72;;;;;;;-146.25;100.00;52587.19;2080343;28;20151;-75
2023/11/20 03:29:10;;;;;;;6.43;3.08;;;;;;;-146.25;100.00;52603.41;2080282;28;30858;-75
2023/11/20 03:30:12;;;;;;;9.82;3.45;;;;;;;-146.25;100.00;52627.75;2088731;28;20045;-76
2023/11/20 03:31:14;;;;;;;10.60;3.53;;;;;;;-146.25;100.00;52575.00;2088343;28;30578;-75
2023/11/20 03:32:16;;;;;;;8.52;3.40;;;;;;;-146.25;100.00;52597.31;2080569;28;29720;-75
2023/11/20 03:33:18;;;;;;;6.95;3.60;;;;;;;-146.25;100.00;52570.97;2081049;28;20834;-76
2023/11/20 03:34:23;;;;;;;9.52;3.33;;;;;;;-146.25;100.00;52629.75;2079470;28;24725;-75
2023/11/20 03:35:25;;;;;;;11.43;3.95;;;;;;;-146.25;100.00;52650.03;2079790;28;25664;-73
2023/11/20 03:36:30;;;;;;;11.88;3.90;;;;;;;-146.25;100.00;52587.19;2080538;28;26763;-75
2023/11/20 03:37:33;;;;;;;11.30;4.00;;;;;;;-146.25;100.00;52625.72;2080490;28;33812;-75
2023/11/20 03:38:34;;;;;;;9.82;3.38;;;;;;;-146.25;100.00;52589.22;2088528;28;20867;-75
2023/11/20 03:39:36;;;;;;;15.80;4.75;;;;;;;-146.25;100.00;52619.63;2081131;28;20488;-75
2023/11/20 03:40:38;;;;;;;13.18;4.70;;;;;;;-146.25;100.00;52615.56;2080677;28;32002;-75
2023/11/20 03:41:40;;;;;;;11.75;4.43;;;;;;;-146.25;100.00;52595.28;2081032;28;22263;-75
2023/11/20 03:42:42;;;;;;;14.00;5.07;;;;;;;-146.25;100.00;52603.41;2088239;28;28247;-75
2023/11/20 03:43:44;;;;;;;12.13;4.80;;;;;;;-146.25;100.00;52607.47;2088636;28;20038;-75
2023/11/20 03:44:46;;;;;;;12.82;5.13;;;;;;;-146.25;100.00;52595.28;2088148;28;32064;-72
2023/11/20 03:45:48;;;;;;;12.05;4.72;;;;;;;-146.25;100.00;52591.25;2080542;28;29551;-74
2023/11/20 03:46:52;;;;;;;15.55;5.32;;;;;;;-146.25;100.00;52621.66;2079860;28;30605;-74
2023/11/20 03:47:56;;;;;;;14.68;5.70;;;;;;;-146.25;100.00;52617.59;2080550;28;31017;-74
2023/11/20 03:48:58;;;;;;;12.10;5.55;;;;;;;-146.25;100.00;52599.34;2080973;28;20038;-74
2023/11/20 03:50:02;;;;;;;14.88;4.82;;;;;;;-146.25;100.00;52607.47;2079688;28;21082;-75
2023/11/20 03:51:04;;;;;;;14.07;5.40;;;;;;;-146.25;100.00;52601.38;2080166;28;26979;-74
2023/11/20 03:52:08;;;;;;;16.33;5.30;;;;;;;-146.25;100.00;52601.38;2081116;28;23640;-74
2023/11/20 03:53:10;;;;;;;16.60;5.90;;;;;;;-146.25;100.00;52625.72;2079391;28;30788;-75
2023/11/20 03:54:12;;;;;;;13.32;5.47;;;;;;;-146.25;100.00;52591.25;2082264;28;25932;-74
2023/11/20 03:55:15;;;;;;;19.60;5.38;;;;;;;-146.25;100.00;52617.59;2071813;28;26800;-74
2023/11/20 03:56:17;;;;;;;16.17;5.43;;;;;;;-146.25;100.00;52611.50;2071390;28;30588;-75
2023/11/20 03:57:19;;;;;;;16.77;5.47;;;;;;;-146.25;100.00;52579.06;2079800;28;37004;-75
2023/11/20 03:58:21;;;;;;;15.15;5.53;;;;;;;-146.25;100.00;52625.72;2079973;28;26275;-75
2023/11/20 03:59:25;;;;;;;14.10;5.45;;;;;;;-146.25;100.00;52643.97;2081268;28;20046;-75
2023/11/20 04:00:27;;;;;;;17.20;5.38;;;;;;;-146.25;100.00;52623.69;2080310;28;20046;-74
2023/11/20 04:01:29;;;;;;;13.63;5.22;;;;;;;-146.25;100.00;52585.16;2080044;28;33849;-75
2023/11/20 04:02:33;;;;;;;15.38;5.32;;;;;;;-146.25;100.00;52617.59;2079630;28;33841;-75
2023/11/20 04:03:34;;;;;;;14.82;5.07;;;;;;;-146.25;100.00;52570.97;2080174;28;29003;-75
2023/11/20 04:04:37;;;;;;;16.60;5.60;;;;;;;-146.25;100.00;52629.75;2081056;28;20049;-75
2023/11/20 04:05:38;;;;;;;12.65;5.25;;;;;;;-146.25;100.00;52611.50;2080319;28;36588;-75
2023/11/20 04:06:41;;;;;;;14.15;5.22;;;;;;;-146.25;100.00;52583.13;2080867;28;20886;-75
2023/11/20 04:07:46;;;;;;;12.05;4.38;;;;;;;-146.25;100.00;52607.47;2080260;28;23371;-75
2023/11/20 04:08:47;;;;;;;18.90;5.20;;;;;;;-146.25;100.00;52611.50;2071854;28;27018;-75
2023/11/20 04:09:51;;;;;;;13.15;3.97;;;;;;;-146.25;100.00;52613.53;2080440;28;20038;-75
2023/11/20 04:10:53;;;;;;;11.52;4.35;;;;;;;-146.25;100.00;52623.69;2079818;28;24008;-76
2023/11/20 04:11:56;;;;;;;10.77;3.67;;;;;;;-146.25;100.00;52601.38;2080132;28;20030;-75
2023/11/20 04:12:59;;;;;;;11.13;3.83;;;;;;;-146.25;100.00;52599.34;2080544;28;28154;-75
2023/11/20 04:14:01;;;;;;;7.25;3.45;;;;;;;-146.25;100.00;52635.84;2080099;28;30545;-75
2023/11/20 04:15:04;;;;;;;12.43;4.10;;;;;;;-146.25;100.00;52615.56;2081168;28;20932;-75
2023/11/20 04:16:10;;;;;;;9.02;3.30;;;;;;;-146.25;100.00;52609.50;2079654;28;35854;-73
2023/11/20 04:17:12;;;;;;;7.30;3.15;;;;;;;-146.25;100.00;52585.16;2080209;28;27986;-75
2023/11/20 04:18:13;;;;;;;7.72;3.13;;;;;;;-146.25;100.00;52619.63;2080754;28;25507;-75
2023/11/20 04:19:15;;;;;;;9.18;3.35;;;;;;;-146.25;100.00;52583.13;2079288;28;31042;-75
2023/11/20 04:20:20;;;;;;;6.82;2.55;;;;;;;-146.25;100.00;52629.75;2080590;28;20029;-75
2023/11/20 04:21:21;;;;;;;6.28;2.92;;;;;;;-146.25;100.00;52623.69;2080515;28;26545;-75
2023/11/20 04:22:23;;;;;;;10.45;2.83;;;;;;;-146.25;100.00;52597.31;2081058;28;20125;-75
2023/11/20 04:23:25;;;;;;;8.02;2.80;;;;;;;-146.25;100.00;52609.50;2080442;28;20169;-75
2023/11/20 04:24:27;;;;;;;5.72;2.40;;;;;;;-146.25;100.00;52601.38;2079627;28;38529;-75
2023/11/20 04:25:29;;;;;;;5.30;2.50;;;;;;;-146.25;100.00;52615.56;2079922;28;20038;-75
2023/11/20 04:26:30;;;;;;;8.68;3.10;;;;;;;-146.25;100.00;52607.47;2079808;28;36728;-75
2023/11/20 04:27:35;;;;;;;8.52;2.60;;;;;;;-146.25;100.00;52566.91;2079761;28;29557;-75
2023/11/20 04:28:37;;;;;;;7.05;2.50;;;;;;;-146.25;100.00;52607.47;2080313;28;33046;-75
2023/11/20 04:29:39;;;;;;;7.45;3.17;;;;;;;-146.25;100.00;52579.06;2079921;28;36206;-75
2023/11/20 04:30:41;;;;;;;7.88;2.80;;;;;;;-146.25;100.00;52575.00;2080730;28;20038;-75
2023/11/20 04:31:45;;;;;;;4.53;2.22;;;;;;;-146.25;100.00;52619.63;2079970;28;37162;-76
2023/11/20 04:32:47;;;;;;;6.88;3.00;;;;;;;-146.25;100.00;52631.78;2079730;28;35211;-74
2023/11/20 04:33:49;;;;;;;6.95;2.60;;;;;;;-146.25;100.00;52611.50;2075648;28;33545;-75
2023/11/20 04:34:51;;;;;;;5.95;2.65;;;;;;;-146.25;100.00;52597.31;2072168;28;36038;-75
2023/11/20 04:35:53;;;;;;;6.30;2.67;;;;;;;-146.25;100.00;52611.50;2080187;28;20038;-75
2023/11/20 04:36:55;;;;;;;6.70;2.67;;;;;;;-146.25;100.00;52629.75;2079250;28;40988;-76
2023/11/20 04:37:56;;;;;;;6.18;2.58;;;;;;;-146.25;100.00;52627.75;2072492;28;30367;-75
2023/11/20 04:38:58;;;;;;;6.68;2.50;;;;;;;-146.25;100.00;52603.41;2072172;28;33151;-76
2023/11/20 04:40:00;;;;;;;5.68;2.78;;;;;;;-146.25;100.00;52621.66;2071577;28;39568;-76
2023/11/20 04:41:02;;;;;;;7.70;2.70;;;;;;;-146.25;100.00;52589.22;2072927;28;20068;-76
2023/11/20 04:42:04;;;;;;;7.38;3.05;;;;;;;-146.25;100.00;52583.13;2071686;28;36337;-76
2023/11/20 04:43:06;;;;;;;6.00;2.95;;;;;;;-146.25;100.00;52615.56;2071914;28;30032;-75
2023/11/20 04:44:07;;;;;;;9.65;3.25;;;;;;;-146.25;100.00;52619.63;2072008;28;33748;-73
2023/11/20 04:45:10;;;;;;;5.93;2.95;;;;;;;-146.25;100.00;52593.25;2071196;28;37865;-74